sensor_id;sensor_type;location;lat;lon;timestamp;pressure;altitude;pressure_sealevel;temperature;humidity
39954;BME280;25631;51.516;-0.470;2022-07-17T00:02:31;102377.26;;;22.23;26.79
39954;BME280;25631;51.516;-0.470;2022-07-17T00:05:08;102381.07;;;22.29;26.27
39954;BME280;25631;51.516;-0.470;2022-07-17T00:07:44;102383.53;;;22.33;26.22
39954;BME280;25631;51.516;-0.470;2022-07-17T00:10:21;102382.68;;;22.13;26.01
39954;BME280;25631;51.516;-0.470;2022-07-17T00:12:57;102384.86;;;22.07;25.90
39954;BME280;25631;51.516;-0.470;2022-07-17T00:15:34;102389.30;;;22.15;25.81
39954;BME280;25631;51.516;-0.470;2022-07-17T00:18:10;102391.91;;;22.19;25.71
39954;BME280;25631;51.516;-0.470;2022-07-17T00:20:47;102393.16;;;21.96;25.67
39954;BME280;25631;51.516;-0.470;2022-07-17T00:23:23;102396.32;;;22.01;25.60
39954;BME280;25631;51.516;-0.470;2022-07-17T00:25:59;102397.26;;;22.02;25.71
39954;BME280;25631;51.516;-0.470;2022-07-17T00:28:36;102401.64;;;22.19;25.97
39954;BME280;25631;51.516;-0.470;2022-07-17T00:31:13;102405.54;;;22.21;26.27
39954;BME280;25631;51.516;-0.470;2022-07-17T00:33:49;102406.57;;;21.91;27.04
39954;BME280;25631;51.516;-0.470;2022-07-17T00:36:25;102400.05;;;22.04;27.40
39954;BME280;25631;51.516;-0.470;2022-07-17T00:39:02;102400.61;;;21.86;27.92
39954;BME280;25631;51.516;-0.470;2022-07-17T00:41:38;102404.63;;;21.97;27.86
39954;BME280;25631;51.516;-0.470;2022-07-17T00:44:15;102400.91;;;21.77;27.97
39954;BME280;25631;51.516;-0.470;2022-07-17T00:46:51;102397.55;;;21.80;28.07
39954;BME280;25631;51.516;-0.470;2022-07-17T00:49:28;102397.70;;;21.99;28.32
39954;BME280;25631;51.516;-0.470;2022-07-17T00:52:05;102396.88;;;21.84;28.48
39954;BME280;25631;51.516;-0.470;2022-07-17T00:54:43;102399.61;;;21.85;28.47
39954;BME280;25631;51.516;-0.470;2022-07-17T00:57:20;102396.86;;;21.91;28.61
39954;BME280;25631;51.516;-0.470;2022-07-17T00:59:58;102394.39;;;22.21;28.64
39954;BME280;25631;51.516;-0.470;2022-07-17T01:02:34;102390.17;;;21.92;28.80
39954;BME280;25631;51.516;-0.470;2022-07-17T01:05:11;102388.58;;;21.97;28.88
39954;BME280;25631;51.516;-0.470;2022-07-17T01:07:48;102389.82;;;22.05;28.85
39954;BME280;25631;51.516;-0.470;2022-07-17T01:10:24;102387.65;;;21.79;28.89
39954;BME280;25631;51.516;-0.470;2022-07-17T01:13:01;102390.81;;;21.75;28.88
39954;BME280;25631;51.516;-0.470;2022-07-17T01:15:39;102391.59;;;21.75;28.84
39954;BME280;25631;51.516;-0.470;2022-07-17T01:18:16;102392.29;;;21.49;28.85
39954;BME280;25631;51.516;-0.470;2022-07-17T01:20:52;102392.35;;;21.60;29.07
39954;BME280;25631;51.516;-0.470;2022-07-17T01:23:29;102390.02;;;21.56;29.10
39954;BME280;25631;51.516;-0.470;2022-07-17T01:26:05;102384.74;;;21.48;29.16
39954;BME280;25631;51.516;-0.470;2022-07-17T01:28:42;102382.80;;;21.33;29.04
39954;BME280;25631;51.516;-0.470;2022-07-17T01:31:18;102381.84;;;21.44;28.98
39954;BME280;25631;51.516;-0.470;2022-07-17T01:33:54;102383.65;;;21.26;28.87
39954;BME280;25631;51.516;-0.470;2022-07-17T01:36:32;102382.55;;;21.26;28.79
39954;BME280;25631;51.516;-0.470;2022-07-17T01:39:09;102384.38;;;21.42;28.79
39954;BME280;25631;51.516;-0.470;2022-07-17T01:41:45;102386.68;;;21.50;28.76
39954;BME280;25631;51.516;-0.470;2022-07-17T01:44:21;102386.62;;;21.34;28.77
39954;BME280;25631;51.516;-0.470;2022-07-17T01:46:58;102386.95;;;21.21;28.77
39954;BME280;25631;51.516;-0.470;2022-07-17T01:49:34;102387.95;;;21.29;28.76
39954;BME280;25631;51.516;-0.470;2022-07-17T01:52:11;102389.61;;;21.19;28.76
39954;BME280;25631;51.516;-0.470;2022-07-17T01:54:47;102385.49;;;21.35;28.76
39954;BME280;25631;51.516;-0.470;2022-07-17T01:57:24;102381.97;;;21.20;28.80
39954;BME280;25631;51.516;-0.470;2022-07-17T02:00:01;102378.56;;;21.27;29.01
39954;BME280;25631;51.516;-0.470;2022-07-17T02:02:37;102376.27;;;20.90;29.26
39954;BME280;25631;51.516;-0.470;2022-07-17T02:05:14;102369.89;;;20.68;29.24
39954;BME280;25631;51.516;-0.470;2022-07-17T02:07:50;102365.92;;;20.77;29.18
39954;BME280;25631;51.516;-0.470;2022-07-17T02:10:27;102365.17;;;21.01;29.15
39954;BME280;25631;51.516;-0.470;2022-07-17T02:13:04;102364.52;;;20.71;29.17
39954;BME280;25631;51.516;-0.470;2022-07-17T02:15:40;102369.31;;;20.73;29.26
39954;BME280;25631;51.516;-0.470;2022-07-17T02:18:16;102377.42;;;20.92;29.39
39954;BME280;25631;51.516;-0.470;2022-07-17T02:20:53;102378.05;;;20.71;29.56
39954;BME280;25631;51.516;-0.470;2022-07-17T02:23:29;102378.87;;;20.52;29.70
39954;BME280;25631;51.516;-0.470;2022-07-17T02:26:05;102382.49;;;20.62;29.77
39954;BME280;25631;51.516;-0.470;2022-07-17T02:28:42;102388.36;;;20.36;29.97
39954;BME280;25631;51.516;-0.470;2022-07-17T02:31:18;102389.89;;;20.42;30.02
39954;BME280;25631;51.516;-0.470;2022-07-17T02:33:54;102392.38;;;20.41;30.09
39954;BME280;25631;51.516;-0.470;2022-07-17T02:36:31;102388.88;;;20.26;30.13
39954;BME280;25631;51.516;-0.470;2022-07-17T02:39:07;102385.46;;;20.28;30.12
39954;BME280;25631;51.516;-0.470;2022-07-17T02:41:43;102382.70;;;20.24;30.08
39954;BME280;25631;51.516;-0.470;2022-07-17T02:44:20;102385.47;;;20.19;30.02
39954;BME280;25631;51.516;-0.470;2022-07-17T02:46:56;102383.07;;;20.59;29.98
39954;BME280;25631;51.516;-0.470;2022-07-17T02:49:32;102378.32;;;20.49;29.98
39954;BME280;25631;51.516;-0.470;2022-07-17T02:52:09;102376.09;;;20.38;29.96
39954;BME280;25631;51.516;-0.470;2022-07-17T02:54:45;102369.82;;;20.43;30.07
39954;BME280;25631;51.516;-0.470;2022-07-17T02:57:22;102363.31;;;20.15;30.11
39954;BME280;25631;51.516;-0.470;2022-07-17T02:59:59;102359.24;;;20.45;30.03
39954;BME280;25631;51.516;-0.470;2022-07-17T03:02:35;102364.33;;;20.09;30.05
39954;BME280;25631;51.516;-0.470;2022-07-17T03:05:13;102367.68;;;20.28;30.02
39954;BME280;25631;51.516;-0.470;2022-07-17T03:07:50;102367.93;;;20.13;30.08
39954;BME280;25631;51.516;-0.470;2022-07-17T03:10:26;102371.42;;;19.98;30.04
39954;BME280;25631;51.516;-0.470;2022-07-17T03:13:03;102375.17;;;20.01;30.10
39954;BME280;25631;51.516;-0.470;2022-07-17T03:15:39;102375.77;;;20.01;30.04
39954;BME280;25631;51.516;-0.470;2022-07-17T03:18:16;102379.40;;;20.02;30.06
39954;BME280;25631;51.516;-0.470;2022-07-17T03:20:52;102380.59;;;19.99;30.08
39954;BME280;25631;51.516;-0.470;2022-07-17T03:23:29;102376.52;;;20.31;30.14
39954;BME280;25631;51.516;-0.470;2022-07-17T03:26:05;102382.82;;;20.10;30.23
39954;BME280;25631;51.516;-0.470;2022-07-17T03:28:42;102387.68;;;20.11;30.29
39954;BME280;25631;51.516;-0.470;2022-07-17T03:31:18;102386.68;;;19.83;30.34
39954;BME280;25631;51.516;-0.470;2022-07-17T03:33:54;102386.59;;;19.81;30.34
39954;BME280;25631;51.516;-0.470;2022-07-17T03:36:31;102390.08;;;20.02;30.35
39954;BME280;25631;51.516;-0.470;2022-07-17T03:39:07;102390.49;;;19.96;30.41
39954;BME280;25631;51.516;-0.470;2022-07-17T03:41:44;102385.65;;;19.78;30.53
39954;BME280;25631;51.516;-0.470;2022-07-17T03:44:20;102386.68;;;19.93;30.58
39954;BME280;25631;51.516;-0.470;2022-07-17T03:46:57;102384.93;;;19.70;30.64
39954;BME280;25631;51.516;-0.470;2022-07-17T03:49:33;102383.37;;;19.77;30.65
39954;BME280;25631;51.516;-0.470;2022-07-17T03:52:09;102384.28;;;19.74;30.68
39954;BME280;25631;51.516;-0.470;2022-07-17T03:54:46;102387.55;;;19.66;30.66
39954;BME280;25631;51.516;-0.470;2022-07-17T03:57:22;102390.01;;;19.90;30.74
39954;BME280;25631;51.516;-0.470;2022-07-17T03:59:58;102385.45;;;19.66;30.88
39954;BME280;25631;51.516;-0.470;2022-07-17T04:02:35;102385.52;;;19.34;31.07
39954;BME280;25631;51.516;-0.470;2022-07-17T04:05:11;102382.45;;;19.58;31.14
39954;BME280;25631;51.516;-0.470;2022-07-17T04:07:48;102385.77;;;19.49;31.12
39954;BME280;25631;51.516;-0.470;2022-07-17T04:10:24;102387.92;;;19.39;31.15
39954;BME280;25631;51.516;-0.470;2022-07-17T04:13:00;102382.77;;;19.64;31.28
39954;BME280;25631;51.516;-0.470;2022-07-17T04:15:37;102381.29;;;19.27;31.41
39954;BME280;25631;51.516;-0.470;2022-07-17T04:18:13;102382.88;;;19.33;31.54
39954;BME280;25631;51.516;-0.470;2022-07-17T04:20:51;102382.60;;;19.37;31.66
39954;BME280;25631;51.516;-0.470;2022-07-17T04:23:28;102380.66;;;19.32;31.76
39954;BME280;25631;51.516;-0.470;2022-07-17T04:26:05;102375.75;;;19.32;31.77
39954;BME280;25631;51.516;-0.470;2022-07-17T04:28:42;102374.31;;;19.34;31.78
39954;BME280;25631;51.516;-0.470;2022-07-17T04:31:18;102374.44;;;19.59;31.88
39954;BME280;25631;51.516;-0.470;2022-07-17T04:33:54;102377.34;;;19.40;31.98
39954;BME280;25631;51.516;-0.470;2022-07-17T04:36:31;102378.02;;;19.23;32.10
39954;BME280;25631;51.516;-0.470;2022-07-17T04:39:07;102376.38;;;19.33;32.05
39954;BME280;25631;51.516;-0.470;2022-07-17T04:41:44;102375.58;;;19.44;32.00
39954;BME280;25631;51.516;-0.470;2022-07-17T04:44:20;102376.12;;;19.17;31.92
39954;BME280;25631;51.516;-0.470;2022-07-17T04:46:56;102376.33;;;19.53;31.85
39954;BME280;25631;51.516;-0.470;2022-07-17T04:49:33;102372.28;;;19.43;31.83
39954;BME280;25631;51.516;-0.470;2022-07-17T04:52:09;102374.28;;;19.51;31.89
39954;BME280;25631;51.516;-0.470;2022-07-17T04:54:45;102376.16;;;19.26;31.82
39954;BME280;25631;51.516;-0.470;2022-07-17T04:57:22;102378.70;;;19.38;31.80
39954;BME280;25631;51.516;-0.470;2022-07-17T04:59:58;102377.59;;;19.41;31.56
39954;BME280;25631;51.516;-0.470;2022-07-17T05:02:35;102379.90;;;19.49;31.25
39954;BME280;25631;51.516;-0.470;2022-07-17T05:05:12;102380.39;;;18.62;31.24
39954;BME280;25631;51.516;-0.470;2022-07-17T05:07:48;102383.00;;;19.29;31.39
39954;BME280;25631;51.516;-0.470;2022-07-17T05:10:25;102383.39;;;19.27;31.54
39954;BME280;25631;51.516;-0.470;2022-07-17T05:13:01;102384.91;;;19.46;31.60
39954;BME280;25631;51.516;-0.470;2022-07-17T05:15:38;102383.29;;;19.24;31.67
39954;BME280;25631;51.516;-0.470;2022-07-17T05:18:15;102383.74;;;19.34;31.73
39954;BME280;25631;51.516;-0.470;2022-07-17T05:20:51;102388.03;;;19.24;31.78
39954;BME280;25631;51.516;-0.470;2022-07-17T05:23:27;102385.48;;;19.57;31.81
39954;BME280;25631;51.516;-0.470;2022-07-17T05:26:04;102391.33;;;19.39;31.78
39954;BME280;25631;51.516;-0.470;2022-07-17T05:28:40;102387.63;;;19.54;31.78
39954;BME280;25631;51.516;-0.470;2022-07-17T05:31:17;102389.27;;;19.44;31.80
39954;BME280;25631;51.516;-0.470;2022-07-17T05:33:53;102390.08;;;19.49;31.93
39954;BME280;25631;51.516;-0.470;2022-07-17T05:36:30;102389.70;;;19.44;31.88
39954;BME280;25631;51.516;-0.470;2022-07-17T05:39:06;102385.64;;;19.28;31.84
39954;BME280;25631;51.516;-0.470;2022-07-17T05:41:43;102387.64;;;19.47;31.76
39954;BME280;25631;51.516;-0.470;2022-07-17T05:44:19;102387.49;;;19.72;31.64
39954;BME280;25631;51.516;-0.470;2022-07-17T05:46:56;102384.56;;;19.66;31.57
39954;BME280;25631;51.516;-0.470;2022-07-17T05:49:32;102380.26;;;19.54;31.53
39954;BME280;25631;51.516;-0.470;2022-07-17T05:52:08;102382.40;;;19.60;31.38
39954;BME280;25631;51.516;-0.470;2022-07-17T05:54:45;102382.23;;;19.77;31.09
39954;BME280;25631;51.516;-0.470;2022-07-17T05:57:21;102385.07;;;19.44;30.76
39954;BME280;25631;51.516;-0.470;2022-07-17T05:59:57;102388.55;;;19.68;30.74
39954;BME280;25631;51.516;-0.470;2022-07-17T06:02:34;102390.32;;;19.52;30.68
39954;BME280;25631;51.516;-0.470;2022-07-17T06:05:10;102392.69;;;19.65;30.60
39954;BME280;25631;51.516;-0.470;2022-07-17T06:07:47;102389.97;;;19.80;30.53
39954;BME280;25631;51.516;-0.470;2022-07-17T06:10:23;102386.85;;;19.68;30.52
39954;BME280;25631;51.516;-0.470;2022-07-17T06:13:00;102390.35;;;19.63;30.47
39954;BME280;25631;51.516;-0.470;2022-07-17T06:15:37;102392.16;;;19.81;30.45
39954;BME280;25631;51.516;-0.470;2022-07-17T06:18:13;102388.68;;;19.64;30.53
39954;BME280;25631;51.516;-0.470;2022-07-17T06:20:50;102388.99;;;19.92;30.72
39954;BME280;25631;51.516;-0.470;2022-07-17T06:23:26;102386.07;;;19.78;30.72
39954;BME280;25631;51.516;-0.470;2022-07-17T06:26:02;102385.92;;;19.64;30.88
39954;BME280;25631;51.516;-0.470;2022-07-17T06:28:39;102384.48;;;19.82;30.97
39954;BME280;25631;51.516;-0.470;2022-07-17T06:31:15;102379.70;;;19.56;30.98
39954;BME280;25631;51.516;-0.470;2022-07-17T06:33:52;102378.96;;;19.55;31.02
39954;BME280;25631;51.516;-0.470;2022-07-17T06:36:29;102378.07;;;19.75;31.18
39954;BME280;25631;51.516;-0.470;2022-07-17T06:39:05;102375.47;;;19.63;31.34
39954;BME280;25631;51.516;-0.470;2022-07-17T06:41:41;102377.77;;;19.32;31.53
39954;BME280;25631;51.516;-0.470;2022-07-17T06:44:18;102383.02;;;19.46;31.64
39954;BME280;25631;51.516;-0.470;2022-07-17T06:46:54;102382.05;;;19.81;31.46
39954;BME280;25631;51.516;-0.470;2022-07-17T06:49:31;102384.15;;;19.62;31.41
39954;BME280;25631;51.516;-0.470;2022-07-17T06:52:07;102386.42;;;19.86;31.31
39954;BME280;25631;51.516;-0.470;2022-07-17T06:54:44;102389.73;;;19.72;31.31
39954;BME280;25631;51.516;-0.470;2022-07-17T06:57:20;102394.44;;;19.72;31.16
39954;BME280;25631;51.516;-0.470;2022-07-17T06:59:56;102395.77;;;20.21;31.04
39954;BME280;25631;51.516;-0.470;2022-07-17T07:02:33;102400.01;;;20.02;31.01
39954;BME280;25631;51.516;-0.470;2022-07-17T07:05:09;102402.22;;;20.25;30.90
39954;BME280;25631;51.516;-0.470;2022-07-17T07:07:46;102400.61;;;20.28;30.83
39954;BME280;25631;51.516;-0.470;2022-07-17T07:10:22;102406.18;;;20.35;30.71
39954;BME280;25631;51.516;-0.470;2022-07-17T07:12:59;102406.45;;;20.33;30.63
39954;BME280;25631;51.516;-0.470;2022-07-17T07:15:35;102407.64;;;20.37;30.45
39954;BME280;25631;51.516;-0.470;2022-07-17T07:18:11;102408.98;;;20.38;30.40
39954;BME280;25631;51.516;-0.470;2022-07-17T07:20:48;102411.25;;;20.21;30.37
39954;BME280;25631;51.516;-0.470;2022-07-17T07:23:25;102414.81;;;20.14;30.24
39954;BME280;25631;51.516;-0.470;2022-07-17T07:26:02;102419.38;;;20.45;30.22
39954;BME280;25631;51.516;-0.470;2022-07-17T07:28:38;102420.74;;;20.08;30.20
39954;BME280;25631;51.516;-0.470;2022-07-17T07:31:14;102420.36;;;20.27;30.05
39954;BME280;25631;51.516;-0.470;2022-07-17T07:33:51;102414.32;;;20.41;29.77
39954;BME280;25631;51.516;-0.470;2022-07-17T07:36:28;102419.33;;;20.41;29.64
39954;BME280;25631;51.516;-0.470;2022-07-17T07:39:04;102419.77;;;20.53;29.49
39954;BME280;25631;51.516;-0.470;2022-07-17T07:41:41;102422.43;;;20.43;29.17
39954;BME280;25631;51.516;-0.470;2022-07-17T07:44:17;102427.46;;;20.51;29.22
39954;BME280;25631;51.516;-0.470;2022-07-17T07:46:54;102431.05;;;20.42;29.29
39954;BME280;25631;51.516;-0.470;2022-07-17T07:49:30;102430.76;;;20.56;29.23
39954;BME280;25631;51.516;-0.470;2022-07-17T07:52:07;102426.03;;;20.70;29.19
39954;BME280;25631;51.516;-0.470;2022-07-17T07:54:43;102424.14;;;20.78;29.26
39954;BME280;25631;51.516;-0.470;2022-07-17T07:57:20;102419.31;;;20.39;29.27
39954;BME280;25631;51.516;-0.470;2022-07-17T07:59:56;102422.75;;;20.54;29.40
39954;BME280;25631;51.516;-0.470;2022-07-17T08:02:33;102423.73;;;20.50;29.40
39954;BME280;25631;51.516;-0.470;2022-07-17T08:05:09;102424.31;;;20.57;29.35
39954;BME280;25631;51.516;-0.470;2022-07-17T08:07:46;102423.09;;;20.56;29.28
39954;BME280;25631;51.516;-0.470;2022-07-17T08:10:22;102423.25;;;20.67;29.23
39954;BME280;25631;51.516;-0.470;2022-07-17T08:12:58;102421.93;;;20.47;29.48
39954;BME280;25631;51.516;-0.470;2022-07-17T08:15:35;102415.14;;;20.69;29.36
39954;BME280;25631;51.516;-0.470;2022-07-17T08:18:12;102417.99;;;20.41;29.26
39954;BME280;25631;51.516;-0.470;2022-07-17T08:20:48;102414.30;;;20.80;29.12
39954;BME280;25631;51.516;-0.470;2022-07-17T08:23:24;102417.67;;;20.68;29.27
39954;BME280;25631;51.516;-0.470;2022-07-17T08:26:02;102417.06;;;20.93;29.18
39954;BME280;25631;51.516;-0.470;2022-07-17T08:28:38;102415.99;;;21.21;29.28
39954;BME280;25631;51.516;-0.470;2022-07-17T08:31:15;102420.00;;;21.29;29.08
39954;BME280;25631;51.516;-0.470;2022-07-17T08:33:51;102424.54;;;21.35;28.94
39954;BME280;25631;51.516;-0.470;2022-07-17T08:36:27;102422.17;;;21.36;28.95
39954;BME280;25631;51.516;-0.470;2022-07-17T08:39:04;102418.16;;;21.57;28.74
39954;BME280;25631;51.516;-0.470;2022-07-17T08:41:40;102418.43;;;21.52;28.60
39954;BME280;25631;51.516;-0.470;2022-07-17T08:44:17;102409.75;;;21.77;27.90
39954;BME280;25631;51.516;-0.470;2022-07-17T08:46:54;102410.09;;;21.70;27.64
39954;BME280;25631;51.516;-0.470;2022-07-17T08:49:32;102405.71;;;21.93;27.63
39954;BME280;25631;51.516;-0.470;2022-07-17T08:52:11;102401.94;;;21.89;27.14
39954;BME280;25631;51.516;-0.470;2022-07-17T08:54:48;102401.49;;;22.03;27.17
39954;BME280;25631;51.516;-0.470;2022-07-17T08:57:25;102396.78;;;21.87;26.82
39954;BME280;25631;51.516;-0.470;2022-07-17T09:00:02;102393.89;;;21.97;26.62
39954;BME280;25631;51.516;-0.470;2022-07-17T09:02:39;102400.97;;;22.23;26.28
39954;BME280;25631;51.516;-0.470;2022-07-17T09:05:20;102403.84;;;22.53;26.33
39954;BME280;25631;51.516;-0.470;2022-07-17T09:07:57;102401.12;;;22.48;26.15
39954;BME280;25631;51.516;-0.470;2022-07-17T09:10:36;102396.93;;;22.60;26.22
39954;BME280;25631;51.516;-0.470;2022-07-17T09:13:16;102399.53;;;22.77;25.85
39954;BME280;25631;51.516;-0.470;2022-07-17T09:15:57;102399.12;;;22.61;25.75
39954;BME280;25631;51.516;-0.470;2022-07-17T09:18:43;102400.12;;;22.56;25.99
39954;BME280;25631;51.516;-0.470;2022-07-17T09:21:21;102398.96;;;22.78;25.49
39954;BME280;25631;51.516;-0.470;2022-07-17T09:23:59;102399.15;;;22.96;25.67
39954;BME280;25631;51.516;-0.470;2022-07-17T09:26:43;102402.07;;;22.93;25.58
39954;BME280;25631;51.516;-0.470;2022-07-17T09:29:20;102398.93;;;23.02;25.31
39954;BME280;25631;51.516;-0.470;2022-07-17T09:31:57;102393.70;;;23.35;25.36
39954;BME280;25631;51.516;-0.470;2022-07-17T09:34:33;102393.30;;;23.10;25.51
39954;BME280;25631;51.516;-0.470;2022-07-17T09:37:21;102389.57;;;23.36;24.97
39954;BME280;25631;51.516;-0.470;2022-07-17T09:39:58;102385.59;;;23.42;25.03
39954;BME280;25631;51.516;-0.470;2022-07-17T09:42:35;102383.48;;;23.60;24.90
39954;BME280;25631;51.516;-0.470;2022-07-17T09:45:11;102379.56;;;23.27;24.17
39954;BME280;25631;51.516;-0.470;2022-07-17T09:47:48;102377.12;;;23.14;24.03
39954;BME280;25631;51.516;-0.470;2022-07-17T09:50:27;102373.75;;;23.20;23.70
39954;BME280;25631;51.516;-0.470;2022-07-17T09:53:05;102376.63;;;23.07;24.11
39954;BME280;25631;51.516;-0.470;2022-07-17T09:55:44;102371.14;;;23.37;23.87
39954;BME280;25631;51.516;-0.470;2022-07-17T09:58:22;102369.30;;;23.41;23.60
39954;BME280;25631;51.516;-0.470;2022-07-17T10:01:00;102376.83;;;23.47;23.53
39954;BME280;25631;51.516;-0.470;2022-07-17T10:03:37;102373.48;;;23.46;23.62
39954;BME280;25631;51.516;-0.470;2022-07-17T10:06:13;102374.66;;;23.54;24.14
39954;BME280;25631;51.516;-0.470;2022-07-17T10:08:50;102373.95;;;23.67;24.00
39954;BME280;25631;51.516;-0.470;2022-07-17T10:11:29;102367.91;;;23.87;23.60
39954;BME280;25631;51.516;-0.470;2022-07-17T10:14:09;102368.63;;;24.01;23.75
39954;BME280;25631;51.516;-0.470;2022-07-17T10:16:46;102371.32;;;24.25;24.01
39954;BME280;25631;51.516;-0.470;2022-07-17T10:19:24;102370.37;;;24.16;24.04
39954;BME280;25631;51.516;-0.470;2022-07-17T10:22:04;102365.95;;;24.61;23.88
39954;BME280;25631;51.516;-0.470;2022-07-17T10:24:50;102362.06;;;24.53;23.64
39954;BME280;25631;51.516;-0.470;2022-07-17T10:27:28;102363.00;;;24.28;23.64
39954;BME280;25631;51.516;-0.470;2022-07-17T10:30:07;102363.63;;;24.63;23.22
39954;BME280;25631;51.516;-0.470;2022-07-17T10:32:51;102360.76;;;24.88;22.96
39954;BME280;25631;51.516;-0.470;2022-07-17T10:35:29;102359.89;;;24.55;22.25
39954;BME280;25631;51.516;-0.470;2022-07-17T10:38:10;102357.19;;;24.97;22.23
39954;BME280;25631;51.516;-0.470;2022-07-17T10:40:46;102355.74;;;25.02;22.19
39954;BME280;25631;51.516;-0.470;2022-07-17T10:43:23;102353.07;;;25.29;21.98
39954;BME280;25631;51.516;-0.470;2022-07-17T10:45:59;102355.70;;;25.51;22.35
39954;BME280;25631;51.516;-0.470;2022-07-17T10:48:38;102355.45;;;25.52;21.95
39954;BME280;25631;51.516;-0.470;2022-07-17T10:51:16;102354.19;;;25.74;21.85
39954;BME280;25631;51.516;-0.470;2022-07-17T10:53:56;102353.36;;;25.96;21.64
39954;BME280;25631;51.516;-0.470;2022-07-17T10:56:36;102350.48;;;25.73;21.48
39954;BME280;25631;51.516;-0.470;2022-07-17T10:59:12;102342.60;;;25.50;21.72
39954;BME280;25631;51.516;-0.470;2022-07-17T11:01:55;102340.03;;;26.01;21.47
39954;BME280;25631;51.516;-0.470;2022-07-17T11:04:36;102333.67;;;25.75;21.18
39954;BME280;25631;51.516;-0.470;2022-07-17T11:07:12;102331.15;;;25.96;21.23
39954;BME280;25631;51.516;-0.470;2022-07-17T11:09:49;102328.15;;;25.66;21.57
39954;BME280;25631;51.516;-0.470;2022-07-17T11:12:31;102318.59;;;25.76;21.59
39954;BME280;25631;51.516;-0.470;2022-07-17T11:15:08;102320.80;;;25.89;22.06
39954;BME280;25631;51.516;-0.470;2022-07-17T11:17:45;102319.46;;;25.96;21.76
39954;BME280;25631;51.516;-0.470;2022-07-17T11:20:22;102312.64;;;26.08;21.36
39954;BME280;25631;51.516;-0.470;2022-07-17T11:22:58;102308.16;;;26.36;21.37
39954;BME280;25631;51.516;-0.470;2022-07-17T11:25:35;102295.52;;;26.91;21.19
39954;BME280;25631;51.516;-0.470;2022-07-17T11:28:11;102297.07;;;27.13;20.64
39954;BME280;25631;51.516;-0.470;2022-07-17T11:30:47;102298.89;;;26.85;20.68
39954;BME280;25631;51.516;-0.470;2022-07-17T11:33:24;102295.81;;;26.96;20.59
39954;BME280;25631;51.516;-0.470;2022-07-17T11:36:00;102292.65;;;27.10;20.60
39954;BME280;25631;51.516;-0.470;2022-07-17T11:38:37;102290.78;;;27.11;20.53
39954;BME280;25631;51.516;-0.470;2022-07-17T11:41:16;102289.88;;;26.95;20.64
39954;BME280;25631;51.516;-0.470;2022-07-17T11:43:52;102284.23;;;27.38;20.36
39954;BME280;25631;51.516;-0.470;2022-07-17T11:46:30;102282.55;;;27.43;20.44
39954;BME280;25631;51.516;-0.470;2022-07-17T11:49:07;102283.51;;;27.53;20.21
39954;BME280;25631;51.516;-0.470;2022-07-17T11:51:44;102289.35;;;27.51;19.64
39954;BME280;25631;51.516;-0.470;2022-07-17T11:54:21;102286.59;;;27.64;19.58
39954;BME280;25631;51.516;-0.470;2022-07-17T11:56:58;102277.49;;;28.17;19.44
39954;BME280;25631;51.516;-0.470;2022-07-17T11:59:35;102274.27;;;28.19;19.67
39954;BME280;25631;51.516;-0.470;2022-07-17T12:02:13;102267.78;;;28.43;19.36
39954;BME280;25631;51.516;-0.470;2022-07-17T12:04:51;102269.91;;;28.24;19.46
39954;BME280;25631;51.516;-0.470;2022-07-17T12:07:42;102266.02;;;28.03;19.35
39954;BME280;25631;51.516;-0.470;2022-07-17T12:10:20;102264.73;;;28.02;19.21
39954;BME280;25631;51.516;-0.470;2022-07-17T12:12:59;102264.51;;;28.11;18.83
39954;BME280;25631;51.516;-0.470;2022-07-17T12:15:38;102250.19;;;28.36;18.97
39954;BME280;25631;51.516;-0.470;2022-07-17T12:18:21;102250.93;;;28.44;19.00
39954;BME280;25631;51.516;-0.470;2022-07-17T12:20:59;102250.53;;;28.41;18.66
39954;BME280;25631;51.516;-0.470;2022-07-17T12:23:39;102252.56;;;28.12;19.01
39954;BME280;25631;51.516;-0.470;2022-07-17T12:26:17;102251.56;;;28.50;19.16
39954;BME280;25631;51.516;-0.470;2022-07-17T12:28:55;102246.57;;;28.50;18.78
39954;BME280;25631;51.516;-0.470;2022-07-17T12:31:31;102246.01;;;28.62;18.71
39954;BME280;25631;51.516;-0.470;2022-07-17T12:34:07;102238.60;;;28.56;18.97
39954;BME280;25631;51.516;-0.470;2022-07-17T12:36:44;102243.02;;;28.56;18.68
39954;BME280;25631;51.516;-0.470;2022-07-17T12:39:20;102239.91;;;28.68;18.81
39954;BME280;25631;51.516;-0.470;2022-07-17T12:41:57;102238.27;;;29.09;18.54
39954;BME280;25631;51.516;-0.470;2022-07-17T12:44:33;102227.00;;;29.14;18.60
39954;BME280;25631;51.516;-0.470;2022-07-17T12:47:10;102226.27;;;28.99;18.64
39954;BME280;25631;51.516;-0.470;2022-07-17T12:49:46;102229.14;;;29.43;18.54
39954;BME280;25631;51.516;-0.470;2022-07-17T12:52:23;102230.38;;;29.42;18.19
39954;BME280;25631;51.516;-0.470;2022-07-17T12:54:59;102238.30;;;29.62;18.17
39954;BME280;25631;51.516;-0.470;2022-07-17T12:57:35;102234.60;;;29.46;17.66
39954;BME280;25631;51.516;-0.470;2022-07-17T13:00:13;102231.30;;;29.70;17.77
39954;BME280;25631;51.516;-0.470;2022-07-17T13:02:50;102230.36;;;29.97;17.45
39954;BME280;25631;51.516;-0.470;2022-07-17T13:05:26;102233.57;;;29.68;17.22
39954;BME280;25631;51.516;-0.470;2022-07-17T13:08:03;102225.56;;;29.94;17.23
39954;BME280;25631;51.516;-0.470;2022-07-17T13:10:39;102234.23;;;29.81;17.51
39954;BME280;25631;51.516;-0.470;2022-07-17T13:13:16;102228.13;;;30.26;17.54
39954;BME280;25631;51.516;-0.470;2022-07-17T13:15:52;102230.93;;;29.94;17.00
39954;BME280;25631;51.516;-0.470;2022-07-17T13:18:29;102223.54;;;29.79;17.02
39954;BME280;25631;51.516;-0.470;2022-07-17T13:21:05;102220.32;;;29.99;16.73
39954;BME280;25631;51.516;-0.470;2022-07-17T13:23:42;102214.65;;;29.99;16.70
39954;BME280;25631;51.516;-0.470;2022-07-17T13:26:18;102208.33;;;30.22;16.55
39954;BME280;25631;51.516;-0.470;2022-07-17T13:28:55;102211.15;;;30.14;16.27
39954;BME280;25631;51.516;-0.470;2022-07-17T13:31:31;102208.45;;;30.45;16.43